• Join FlightAware (Why Join?)
  • Login
  • US Flag 
01:25PM EST


 

Airport Tracker/Info


-or-


 

Live Flight TrackerFlight Track Log ✈ SWA1451 ✈ 14-Dec-2013 ✈ KMCO - KGRR

Flight Track Log - Related Links

Times and Time Zones

All times are in EST time to prevent confusion due to time zone crossing. See the SWA1451 flight status page for this flight to view local times or setup timezone preferences in your user account.

Time Position Orientation Groundspeed Altitude Reporting Facility
EST Latitude Longitude Course Direction KTS MPH feet Rate Location/Type
07:55PM 28.4000 -81.3000 221° Southwest 164 189 600  Level Orlando TRACON
07:56PM 28.3500 -81.3500 221° Southwest 246 283 4,000 2,520 Climbing Orlando TRACON
07:57PM 28.3500 -81.4167 270° West 249 287 7,000 2,640 Climbing Orlando TRACON
07:59PM 28.4344 -81.4950 321° Northwest 245 282 10,600 1,920 Climbing Jacksonville Center
08:00PM 28.5389 -81.4936 North 311 358 12,000 1,800 Climbing Jacksonville Center
08:01PM 28.6456 -81.5181 349° North 342 394 14,300 2,100 Climbing Jacksonville Center
08:02PM 28.7564 -81.5450 348° North 373 429 16,200 2,220 Climbing Jacksonville Center
08:03PM 28.8672 -81.5719 348° North 397 457 18,800 2,100 Climbing Jacksonville Center
08:04PM 28.9822 -81.5967 349° North 407 468 20,400 1,560 Climbing Jacksonville Center
08:05PM 29.0975 -81.6258 348° North 414 476 22,000 1,380 Climbing Jacksonville Center
08:06PM 29.1936 -81.6486 348° North 425 489 23,200 1,380 Climbing Jacksonville Center
08:07PM 29.3422 -81.6847 348° North 436 502 24,800 900 Climbing Jacksonville Center
08:08PM 29.4678 -81.7142 348° North 448 516 25,000 60 Climbing Jacksonville Center
08:09PM 29.5892 -81.7439 348° North 448 516 25,000  Level Jacksonville Center
08:10PM 29.7106 -81.7733 348° North 448 516 25,000  Level Jacksonville Center
08:11PM 29.8339 -81.8031 348° North 448 516 25,000  Level Jacksonville Center
08:12PM 29.9531 -81.8306 349° North 448 516 25,000 -60 Level Jacksonville Center
08:13PM 30.0578 -81.8533 349° North 437 503 24,900  Descending Jacksonville Center
08:14PM 30.1769 -81.8808 349° North 432 497 25,000  Climbing Jacksonville Center
08:15PM 30.3064 -81.8797 360° North 432 497 25,000  Level Jacksonville Center
08:16PM 30.4356 -81.8614 North 443 510 25,000  Level Jacksonville Center
08:17PM 30.5589 -81.8744 355° North 448 516 25,000  Level Jacksonville Center
08:18PM 30.6844 -81.9167 344° North 454 522 25,000  Level Jacksonville Center
08:19PM 30.8081 -81.9469 348° North 454 522 25,000  Level Jacksonville Center
08:20PM 30.9336 -81.9794 347° North 454 522 25,000  Level Jacksonville Center
08:21PM 31.0589 -82.0122 347° North 454 522 25,000 -60 Level Jacksonville Center
08:22PM 31.1844 -82.0428 348° North 454 522 24,900  Descending Jacksonville Center
08:23PM 31.3100 -82.0756 347° North 454 522 25,000  Climbing Jacksonville Center
08:24PM 31.4356 -82.1086 347° North 454 522 25,000 -60 Level Jacksonville Center
08:25PM 31.5631 -82.1417 348° North 454 522 24,900  Descending Jacksonville Center
08:26PM 31.6886 -82.1747 347° North 454 522 25,000  Climbing Jacksonville Center
08:28PM 31.9986 -82.2536 348° North 466 536 25,000  Level Atlanta Center
08:29PM 32.1222 -82.2853 348° North 466 536 25,000  Level Atlanta Center
08:30PM 32.2606 -82.3219 347° North 466 536 25,000  Level Atlanta Center
08:31PM 32.3883 -82.3564 347° North 466 536 25,000  Level Atlanta Center
08:32PM 32.5142 -82.3861 349° North 466 536 25,000  Level Atlanta Center
08:33PM 32.6397 -82.4206 347° North 466 536 25,000  Level Atlanta Center
08:34PM 32.7653 -82.4531 348° North 466 536 25,000  Level Atlanta Center
08:35PM 32.8911 -82.4878 347° North 461 531 25,000  Level Atlanta Center
08:36PM 33.0064 -82.5203 347° North 466 536 25,000  Level Atlanta Center
08:37PM 33.1339 -82.5528 348° North 466 536 25,000  Level Atlanta Center
08:38PM 33.2597 -82.5856 348° North 466 536 25,000  Level Atlanta Center
08:39PM 33.3978 -82.6256 346° North 466 536 25,000  Level Atlanta Center
08:40PM 33.5256 -82.6608 347° North 466 536 25,000  Level Atlanta Center
08:41PM 33.6492 -82.6939 347° North 466 536 25,000  Level Atlanta Center
08:42PM 33.7789 -82.7267 348° North 473 544 25,000  Level Atlanta Center
08:43PM 33.8981 -82.7575 348° North 473 544 25,000  Level Atlanta Center
08:44PM 34.0258 -82.7931 347° North 471 542 25,000 -540 Level Atlanta Center
08:45PM 34.1556 -82.8264 348° North 466 536 24,000 -540 Descending Atlanta Center
08:46PM 34.2811 -82.8597 348° North 466 536 24,000  Level Atlanta Center
08:47PM 34.4108 -82.8956 347° North 477 549 24,000  Level Atlanta Center
08:48PM 34.5406 -82.9317 347° North 471 542 24,000  Level Atlanta Center
08:49PM 34.6744 -82.9678 347° North 471 542 24,000  Level Atlanta Center
08:50PM 34.8042 -83.0042 347° North 474 545 24,000  Level Atlanta Center
08:51PM 34.9486 -83.0481 346° North 474 545 24,000  Level Atlanta Center
08:52PM 35.0822 -83.0819 348° North 474 545 24,000  Level Atlanta Center
08:53PM 35.2119 -83.1211 346° North 479 551 24,000  Level Atlanta Center
08:54PM 35.3436 -83.1578 347° North 479 551 24,000  Level Atlanta Center
08:55PM 35.4756 -83.1972 346° North 479 551 24,000  Level Atlanta Center
08:56PM 35.5944 -83.2292 348° North 479 551 24,000  Level Atlanta Center
08:58PM 35.8558 -83.3033 347° North 479 551 24,000  Level Atlanta Center
08:59PM 35.9833 -83.3408 347° North 474 545 24,000  Level Atlanta Center
09:00PM 36.1275 -83.3806 347° North 474 545 24,000  Level Atlanta Center
09:01PM 36.2592 -83.4208 346° North 474 545 24,000  Level Atlanta Center
09:02PM 36.3933 -83.4569 348° North 483 556 24,000  Level Indianapolis Center
09:03PM 36.5242 -83.4953 347° North 482 555 24,000  Level Indianapolis Center
09:04PM 36.6564 -83.5331 347° North 483 556 24,000  Level Indianapolis Center
09:05PM 36.7869 -83.5714 347° North 479 551 24,000  Level Indianapolis Center
09:06PM 36.9169 -83.6092 347° North 477 549 24,000  Level Indianapolis Center
09:07PM 37.0458 -83.6478 347° North 474 545 24,000  Level Indianapolis Center
09:08PM 37.1756 -83.6856 347° North 474 545 24,000  Level Indianapolis Center
09:09PM 37.3272 -83.7306 347° North 475 547 24,000  Level Indianapolis Center
09:10PM 37.4547 -83.7697 346° North 469 540 24,000  Level Indianapolis Center
09:11PM 37.5831 -83.8075 347° North 469 540 24,000  Level Indianapolis Center
09:12PM 37.7067 -83.8458 346° North 457 526 24,000  Level Indianapolis Center
09:13PM 37.8297 -83.8836 346° North 453 521 24,000  Level Indianapolis Center
09:14PM 37.9531 -83.9192 347° North 453 521 24,000  Level Indianapolis Center
09:15PM 38.0756 -83.9569 346° North 451 519 24,000  Level Indianapolis Center
09:16PM 38.1983 -83.9939 347° North 452 520 24,000  Level Indianapolis Center
09:17PM 38.3192 -84.0311 346° North 447 514 24,000  Level Indianapolis Center
09:18PM 38.4411 -84.0681 347° North 447 514 24,000  Level Indianapolis Center
09:19PM 38.5608 -84.1042 347° North 444 511 24,000  Level Indianapolis Center
09:20PM 38.6811 -84.1419 346° North 444 511 24,000  Level Indianapolis Center
09:21PM 38.8008 -84.1803 346° North 443 510 24,000  Level Indianapolis Center
09:22PM 38.9194 -84.2164 347° North 439 505 24,000  Level Indianapolis Center
09:23PM 39.0383 -84.2539 346° North 439 505 24,000  Level Indianapolis Center
09:24PM 39.1575 -84.2897 347° North 439 505 24,000  Level Indianapolis Center
09:25PM 39.2853 -84.3311 346° North 440 506 24,000  Level Indianapolis Center
09:26PM 39.4039 -84.3683 346° North 442 509 24,000  Level Indianapolis Center
09:27PM 39.5208 -84.4058 346° North 437 503 24,000  Level Indianapolis Center
09:28PM 39.6389 -84.4439 346° North 440 506 24,000  Level Indianapolis Center
09:29PM 39.7556 -84.4792 347° North 436 502 24,000  Level Indianapolis Center
09:30PM 39.8761 -84.5178 346° North 442 509 24,000  Level Indianapolis Center
09:31PM 40.0000 -84.5583 346° North 454 522 24,000  Level Indianapolis Center
09:32PM 40.1206 -84.5972 346° North 452 520 24,000  Level Indianapolis Center
09:33PM 40.2417 -84.6353 347° North 451 519 24,000  Level Indianapolis Center
09:34PM 40.3658 -84.6767 346° North 459 528 24,000  Level Indianapolis Center
09:36PM 40.4906 -84.7186 346° North 464 534 24,000  Level Indianapolis Center
09:37PM 40.6381 -84.7647 347° North 461 531 24,000  Level Indianapolis Center
09:37PM 40.7181 -84.7917 346° North 461 531 24,000  Level Chicago Center
09:38PM 40.8433 -84.8322 346° North 464 534 24,000  Level Chicago Center
09:39PM 40.9697 -84.8744 346° North 467 537 24,000  Level Chicago Center
09:40PM 41.0961 -84.9178 346° North 469 540 24,000  Level Chicago Center
09:41PM 41.2217 -84.9600 346° North 467 537 24,000  Level Chicago Center
09:42PM 41.3464 -85.0031 345° North 466 536 24,000  Level Chicago Center
09:43PM 41.4653 -85.0522 343° North 454 522 24,000  Level Chicago Center
09:44PM 41.5833 -85.1019 343° North 451 519 24,000  Level Chicago Center
09:45PM 41.7206 -85.1611 342° North 441 507 24,000 -600 Level Chicago Center
09:46PM 41.8292 -85.2075 342° North 423 487 22,900 -1,500 Descending Chicago Center
09:47PM 41.9344 -85.2522 342° North 406 467 21,000 -2,640 Descending Chicago Center
09:48PM 42.0478 -85.2861 347° North 394 453 17,600 -3,360 Descending Chicago Center
09:49PM 42.1531 -85.3164 348° North 388 447 14,200 -3,000 Descending Chicago Center
09:50PM 42.2553 -85.3444 349° North 381 438 11,500 -2,220 Descending Chicago Center
09:51PM 42.3481 -85.3711 348° North 352 405 9,700 -1,320 Descending Chicago Center
09:52PM 42.4172 -85.4114 337° Northwest 281 323 8,900 -1,320 Descending Chicago Center
09:53PM 42.4864 -85.4414 342° North 264 304 7,100 -1,620 Descending Chicago Center
09:54PM 42.5575 -85.4481 356° North 258 297 5,700 -1,380 Descending Chicago Center
09:55PM 42.6253 -85.4633 351° North 250 288 4,400 -1,140 Descending Chicago Center
09:56PM 42.6892 -85.4761 352° North 238 274 3,400 -720 Descending Chicago Center
09:58PM 42.7450 -85.4881 351° North 213 245 3,000 -540 Descending Chicago Center
09:59PM 42.7917 -85.4983 351° North 185 213 2,400 -720 Descending Chicago Center
10:00PM 42.8344 -85.5072 351° North 171 197 1,600 -720 Descending Chicago Center
10:01PM 42.8689 -85.5142 352° North 143 165 1,000 -600 Descending Chicago Center
10:03PM 42.8667 -85.5167 346° North  Level FlightAware Approximate